Latest Weather Observations for Luncheon Hill

IDT60801

Issued at 9:05 pm EDT Friday 31 October 2014 (issued every 30 minutes, with the page automatically refreshed every 10 minutes)

About weather observations | Map of weather stations | Latest weather observations for TAS | Other Formats
Station Details ID: 091259 Name: LUNCHEON HILL (FORESTRY) Lat: -41.15 Lon: 145.15 Height: 344.0 m
Data from the previous 72 hours. | See also: Recent months at Luncheon Hill
Date/Time
EDT
Temp
°C
App
Temp
°C
Dew
Point
Rel
Hum
%
Delta-T
°C
Wind Press
QNH
hPa
Press
MSL
hPa
Rain
since 9 am
mm
Dir
 
Spd
km/h
Gust
km/h
Spd
kts
Gust
kts
31/09:00pm 12.0 7.7 10.6 91 0.7 E 24 32 13 17 - - 0.6
31/08:30pm 12.0 8.0 10.4 90 0.8 ENE 22 28 12 15 - - 0.6
31/08:00pm 12.4 7.7 10.5 88 1.0 ENE 26 32 14 17 - - 0.6
31/07:30pm 12.6 6.8 10.7 88 1.0 ENE 32 39 17 21 - - 0.6
31/07:00pm 13.2 8.6 11.1 87 1.1 ENE 26 37 14 20 - - 0.6
31/06:30pm 14.0 9.0 11.0 82 1.6 ENE 28 37 15 20 - - 0.6
31/06:00pm 15.0 10.4 11.2 78 2.1 NE 26 37 14 20 - - 0.6
31/05:30pm 15.0 10.6 11.6 80 1.9 NE 26 37 14 20 - - 0.6
31/05:00pm 14.3 9.0 11.3 82 1.6 NE 30 43 16 23 - - 0.6
31/04:30pm 13.6 7.9 11.1 85 1.3 ENE 32 41 17 22 - - 0.6
31/04:00pm 13.6 9.5 11.5 87 1.1 ENE 24 33 13 18 - - 0.6
31/03:30pm 12.9 8.5 11.6 92 0.7 ENE 26 35 14 19 - - 0.6
31/03:00pm 12.5 9.4 12.2 98 0.2 NE 20 28 11 15 - - 0.6
31/02:30pm 12.4 7.4 12.2 99 0.1 NE 30 39 16 21 - - 0.6
31/02:00pm 12.5 7.9 12.3 99 0.1 NNE 28 35 15 19 - - 0.6
31/01:30pm 13.0 8.6 12.8 99 0.1 NNE 28 33 15 18 - - 0.6
31/01:00pm 11.8 7.7 11.6 99 0.1 NNE 24 33 13 18 - - 0.6
31/12:30pm 12.0 7.2 11.8 99 0.1 NNE 28 35 15 19 - - 0.6
31/12:00pm 11.5 7.4 11.3 99 0.1 NE 24 30 13 16 - - 0.4
31/11:30am 11.0 7.5 10.8 99 0.1 NNE 20 26 11 14 - - 0.2
31/11:00am 10.7 7.1 10.5 99 0.1 NNE 20 26 11 14 - - 0.2
31/10:30am 10.4 5.9 10.2 99 0.1 N 24 30 13 16 - - 0.0
31/10:00am 10.2 6.5 10.0 99 0.1 N 20 26 11 14 - - 0.0
31/09:30am 9.7 5.8 9.6 99 0.1 N 20 24 11 13 - - 0.0
31/09:00am 9.6 5.3 9.5 99 0.1 N 22 28 12 15 - - 4.4
31/08:30am 9.1 5.1 9.0 99 0.0 N 20 24 11 13 - - 4.4
31/08:00am 8.7 5.2 8.6 99 0.0 N 17 20 9 11 - - 4.0
31/07:30am 8.6 4.7 8.5 99 0.0 N 19 24 10 13 - - 3.8
31/07:00am 8.6 5.0 8.5 99 0.0 N 17 19 9 10 - - 3.6
31/06:30am 8.5 5.3 8.4 99 0.0 N 15 19 8 10 - - 3.6
31/06:00am 8.7 5.5 8.6 99 0.0 N 15 19 8 10 - - 3.6
31/05:30am 8.7 6.3 8.6 99 0.0 N 11 13 6 7 - - 3.6
31/05:00am 8.7 5.9 8.6 99 0.0 WNW 13 17 7 9 - - 3.6
31/04:30am 8.7 5.2 8.6 99 0.0 WNW 17 26 9 14 - - 3.6
31/04:00am 8.7 5.9 8.6 99 0.0 NW 13 19 7 10 - - 3.4
31/03:30am 8.9 5.4 8.8 99 0.0 WNW 17 20 9 11 - - 3.4
31/03:00am 8.7 5.2 8.6 99 0.0 WNW 17 20 9 11 - - 3.4
31/02:30am 8.7 5.2 8.6 99 0.0 WNW 17 22 9 12 - - 3.4
31/02:00am 9.1 5.3 9.0 99 0.0 WNW 19 24 10 13 - - 3.4
31/01:30am 9.1 6.0 9.0 99 0.0 WNW 15 24 8 13 - - 3.4
31/01:00am 9.2 5.8 9.1 99 0.1 WNW 17 20 9 11 - - 3.2
31/12:30am 9.1 5.7 9.0 99 0.0 WNW 17 20 9 11 - - 3.2
31/12:00am 9.2 6.5 9.1 99 0.1 W 13 19 7 10 - - 3.2
 
Date/Time
EDT
Temp
°C
App
Temp
°C
Dew
Point
Rel
Hum
%
Delta-T
°C
Wind Press
QNH
hPa
Press
MSL
hPa
Rain
since 9 am
mm
Dir
 
Spd
km/h
Gust
km/h
Spd
kts
Gust
kts
30/11:30pm 9.2 6.2 9.1 99 0.1 WNW 15 22 8 12 - - 3.0
30/11:00pm 9.1 6.8 9.0 99 0.0 W 11 15 6 8 - - 3.0
30/10:30pm 8.8 6.4 8.7 99 0.0 WNW 11 15 6 8 - - 3.0
30/10:00pm 9.1 6.8 9.0 99 0.0 W 11 15 6 8 - - 3.0
30/09:30pm 9.0 6.3 8.9 99 0.0 W 13 20 7 11 - - 3.0
30/09:00pm 9.2 6.5 9.1 99 0.1 W 13 20 7 11 - - 3.0
30/08:30pm 9.3 6.7 9.2 99 0.1 W 13 20 7 11 - - 3.0
30/08:00pm 9.5 6.9 9.4 99 0.1 W 13 20 7 11 - - 3.0
30/07:30pm 9.7 7.2 9.6 99 0.1 W 13 19 7 10 - - 3.0
30/07:00pm 9.8 7.2 9.5 98 0.2 WSW 13 24 7 13 - - 3.0
30/06:30pm 10.1 6.8 9.6 97 0.3 W 17 24 9 13 - - 2.8
30/06:00pm 10.4 7.5 9.8 96 0.3 W 15 30 8 16 - - 2.8
30/05:30pm 10.7 7.0 9.6 93 0.6 W 19 30 10 16 - - 2.6
30/05:00pm 10.7 7.0 10.1 96 0.3 WSW 20 33 11 18 - - 2.6
30/04:30pm 10.6 6.5 10.1 97 0.3 WSW 22 41 12 22 - - 2.6
30/04:00pm 12.1 8.9 11.9 99 0.1 W 20 33 11 18 - - 2.4
30/03:30pm 10.6 6.9 10.3 98 0.2 WSW 20 32 11 17 - - 2.2
30/03:00pm 10.8 7.4 10.6 99 0.1 W 19 30 10 16 - - 2.2
30/02:30pm 10.6 6.6 10.4 99 0.1 W 22 37 12 20 - - 2.0
30/02:00pm 10.9 6.2 10.7 99 0.1 W 26 46 14 25 - - 2.0
30/01:30pm 10.5 6.8 10.3 99 0.1 W 20 41 11 22 - - 1.6
30/01:00pm 11.6 8.2 11.4 99 0.1 W 20 33 11 18 - - 1.4
30/12:30pm 11.4 8.0 11.2 99 0.1 W 20 33 11 18 - - 1.2
30/12:00pm 11.4 7.6 11.2 99 0.1 W 22 39 12 21 - - 1.0
30/11:30am 11.0 8.0 10.8 99 0.1 W 17 32 9 17 - - 0.8
30/11:00am 11.1 7.6 10.9 99 0.1 W 20 35 11 19 - - 0.8
30/10:30am 10.5 7.0 10.3 99 0.1 WSW 19 26 10 14 - - 0.6
30/10:00am 10.0 6.4 9.9 99 0.1 W 19 32 10 17 - - 0.2
30/09:30am 9.8 6.2 9.7 99 0.1 WSW 19 33 10 18 - - 0.2
30/09:00am 9.8 5.6 9.7 99 0.1 WSW 22 39 12 21 - - 5.0
30/08:30am 9.3 5.9 9.2 99 0.1 WSW 17 35 9 19 - - 5.0
30/08:00am 9.2 5.8 9.1 99 0.1 W 17 28 9 15 - - 4.8
30/07:30am 8.9 5.8 8.8 99 0.0 W 15 22 8 12 - - 4.6
30/07:00am 8.6 5.0 8.5 99 0.0 W 17 24 9 13 - - 4.6
30/06:30am 8.5 4.9 8.4 99 0.0 WSW 17 30 9 16 - - 4.6
30/06:00am 8.6 5.0 8.5 99 0.0 W 17 24 9 13 - - 4.4
30/05:30am 8.5 4.9 8.4 99 0.0 W 17 26 9 14 - - 4.4
30/05:00am 8.6 5.4 8.5 99 0.0 W 15 24 8 13 - - 4.4
30/04:30am 8.6 5.0 8.5 99 0.0 W 17 26 9 14 - - 4.4
30/04:00am 8.6 5.4 8.5 99 0.0 W 15 26 8 14 - - 4.4
30/03:30am 8.5 5.3 8.4 99 0.0 W 15 22 8 12 - - 4.2
30/03:00am 8.3 4.7 8.2 99 0.0 W 17 26 9 14 - - 4.2
30/02:30am 8.2 4.5 8.1 99 0.0 W 17 26 9 14 - - 4.2
30/02:00am 8.0 4.3 7.9 99 0.0 WSW 17 24 9 13 - - 4.2
30/01:30am 8.2 4.0 8.1 99 0.0 W 20 33 11 18 - - 4.0
30/01:00am 8.0 4.3 7.9 99 0.0 W 17 30 9 16 - - 4.0
30/12:30am 8.5 4.0 8.4 99 0.0 W 22 37 12 20 - - 4.0
30/12:00am 8.7 5.2 8.6 99 0.0 WSW 17 28 9 15 - - 3.6
 
Date/Time
EDT
Temp
°C
App
Temp
°C
Dew
Point
Rel
Hum
%
Delta-T
°C
Wind Press
QNH
hPa
Press
MSL
hPa
Rain
since 9 am
mm
Dir
 
Spd
km/h
Gust
km/h
Spd
kts
Gust
kts
29/11:30pm 8.9 5.8 8.8 99 0.0 W 15 22 8 12 - - 3.2
29/11:00pm 8.9 5.8 8.8 99 0.0 W 15 26 8 14 - - 3.2
29/10:30pm 9.0 5.0 8.9 99 0.0 WSW 20 33 11 18 - - 3.0
29/10:00pm 9.4 6.0 9.3 99 0.1 WSW 17 26 9 14 - - 2.8
29/09:30pm 9.4 5.7 9.3 99 0.1 WSW 19 32 10 17 - - 2.8
29/09:00pm 9.6 5.9 9.5 99 0.1 W 19 35 10 19 - - 2.6
29/08:30pm 9.6 5.9 9.5 99 0.1 W 19 33 10 18 - - 2.6
29/08:00pm 9.7 6.0 9.6 99 0.1 W 19 33 10 18 - - 2.6
29/07:30pm 9.9 6.1 9.8 99 0.1 W 20 33 11 18 - - 2.4
29/07:00pm 9.8 5.2 9.7 99 0.1 W 24 35 13 19 - - 2.4
29/06:30pm 10.1 5.9 9.9 99 0.1 W 22 43 12 23 - - 2.2
29/06:00pm 10.3 5.8 10.1 99 0.1 W 24 35 13 19 - - 2.2
29/05:30pm 10.3 5.1 10.1 99 0.1 W 28 46 15 25 - - 2.2
29/05:25pm 10.3 5.1 10.1 99 0.1 WNW 28 46 15 25 - - 2.2
29/05:00pm 11.0 7.7 10.8 99 0.1 WNW 19 28 10 15 - - 1.8
29/04:39pm 11.3 6.3 11.0 98 0.2 W 28 46 15 25 - - 1.8
29/04:30pm 10.9 6.9 10.6 98 0.2 W 22 44 12 24 - - 1.6
29/04:00pm 10.5 6.3 9.9 96 0.3 W 22 39 12 21 - - 1.6
29/03:30pm 10.8 6.3 10.0 95 0.4 W 24 39 13 21 - - 1.4
29/03:18pm 10.7 5.2 9.3 91 0.7 W 28 46 15 25 - - 1.4
29/03:00pm 11.6 5.6 10.2 91 0.7 WNW 32 43 17 23 - - 0.8
29/02:51pm 11.8 6.1 8.5 80 1.7 W 28 48 15 26 - - 0.8
29/02:30pm 12.1 6.6 9.1 82 1.5 WNW 28 43 15 23 - - 0.8
29/02:00pm 11.5 5.8 9.9 90 0.8 WNW 30 43 16 23 - - 0.8
29/01:30pm 10.6 4.9 9.8 95 0.4 WNW 30 48 16 26 - - 0.8
29/01:29pm 10.5 5.1 9.6 94 0.5 WNW 28 48 15 26 - - 0.8
29/01:00pm 11.3 7.4 10.7 96 0.3 WNW 22 35 12 19 - - 0.6
29/12:30pm 10.3 6.1 9.8 97 0.3 W 22 44 12 24 - - 0.6
29/12:00pm 10.6 6.5 10.0 96 0.3 W 22 39 12 21 - - 0.4
29/11:30am 9.6 5.9 9.3 98 0.2 WSW 19 32 10 17 - - 0.2
29/11:00am 9.8 6.0 9.7 99 0.1 WNW 20 28 11 15 - - 0.2
29/10:30am 9.0 5.4 8.5 97 0.2 W 17 33 9 18 - - 0.0
29/10:00am 9.0 5.9 8.9 99 0.0 W 15 24 8 13 - - 0.0
29/09:30am 8.5 4.5 8.4 99 0.0 W 19 28 10 15 - - 0.0
29/09:00am 8.5 5.3 8.4 99 0.0 W 15 24 8 13 - - 4.4
29/08:30am 7.8 4.3 7.4 97 0.2 W 15 22 8 12 - - 4.2
29/08:00am 7.5 3.4 6.4 93 0.5 W 17 30 9 16 - - 4.0
29/07:30am 7.3 3.9 6.1 92 0.6 W 13 20 7 11 - - 4.0
29/07:00am 7.1 3.7 5.9 92 0.6 W 13 17 7 9 - - 4.0
29/06:30am 6.8 3.0 5.7 93 0.5 WSW 15 20 8 11 - - 4.0
29/06:00am 6.6 2.8 5.7 94 0.4 WSW 15 22 8 12 - - 4.0
29/05:30am 6.4 2.9 5.4 93 0.5 SW 13 20 7 11 - - 4.0
29/05:00am 6.2 1.9 5.2 93 0.4 SW 17 26 9 14 - - 4.0
29/04:30am 6.0 1.7 5.1 94 0.4 SW 17 28 9 15 - - 4.0
29/04:00am 5.7 1.3 5.0 95 0.3 SW 17 24 9 13 - - 4.0
29/03:30am 5.5 0.7 4.9 96 0.3 SW 19 32 10 17 - - 4.0
29/03:00am 5.6 0.9 5.0 96 0.3 SW 19 28 10 15 - - 4.0
29/02:30am 5.7 0.4 5.1 96 0.3 SSW 22 37 12 20 - - 4.0
29/02:00am 5.4 -1.1 4.8 96 0.3 SW 28 43 15 23 - - 4.0
29/01:30am 5.4 -1.0 5.0 97 0.2 SW 28 43 15 23 - - 4.0
29/01:00am 5.3 -1.5 4.9 97 0.2 SW 30 41 16 22 - - 4.0
29/12:30am 5.4 -1.5 4.8 96 0.3 SW 30 46 16 25 - - 4.0
29/12:19am 5.4 -1.5 4.8 96 0.3 SW 30 48 16 26 - - 4.0
29/12:00am 5.1 -1.1 4.4 95 0.3 SW 26 39 14 21 - - 4.0
 
Date/Time
EDT
Temp
°C
App
Temp
°C
Dew
Point
Rel
Hum
%
Delta-T
°C
Wind Press
QNH
hPa
Press
MSL
hPa
Rain
since 9 am
mm
Dir
 
Spd
km/h
Gust
km/h
Spd
kts
Gust
kts
28/11:30pm 5.3 -0.5 4.3 93 0.4 SW 24 39 13 21 - - 4.0
28/11:00pm 4.9 -1.7 4.2 95 0.3 SSW 28 43 15 23 - - 3.8
28/10:30pm 4.9 -2.4 4.5 97 0.2 SSW 32 48 17 26 - - 3.8
28/10:23pm 5.0 -1.9 4.6 97 0.2 SSW 30 48 16 26 - - 3.8
28/10:00pm 4.9 -1.3 4.3 96 0.3 SW 26 43 14 23 - - 3.8
28/09:30pm 5.1 -1.8 4.4 95 0.3 SW 30 50 16 27 - - 3.6

Other Formats:

Comma delimited format used in spreadsheet applications
http://www.bom.gov.au/fwo/IDT60801/IDT60801.95956.axf

JavaScript Object Notation format (JSON) in row-major order
http://www.bom.gov.au/fwo/IDT60801/IDT60801.95956.json